X  Sluiten METAR luchtvaart weer gegevens      EHKD De Kooy Airport
Temperatuur
12°C Temperatuur
8°C Dauwpunt
77% Vochtigheid



Wind
14 KM/U
9 MPH
4 M/S
8 KTS



240°
WZW
Huidig weer

Lichte Motregen Lichte Motregen
Luchtdruk 1015.92 (hPa) - 30 (inHg)
Zicht 6 (mijl) - 9.7 (km)
Vliegveld
Vliegveld code EHKD

Locatie : De Kooy Airport
Afstand: 34 (km)

Metar:
EHKD 130425Z AUTO 24008KT 210V280 9999 -DZ FEW015CB OVC073 12/08 Q1016 BLU

Tijd: 13-06-2024 06:25 CEST